createdAt,value
2022-08-22T00:02:57.280Z,2.90
2022-08-22T00:03:00.667Z,2.70
2022-08-22T00:03:04.652Z,2.60
2022-08-22T00:03:08.326Z,4.40
2022-08-22T00:03:10.386Z,2.60
2022-08-22T00:07:55.351Z,3.10
2022-08-22T00:12:54.208Z,2.90
2022-08-22T00:17:55.261Z,2.70
2022-08-22T00:22:54.107Z,3.00
2022-08-22T00:27:54.090Z,3.20
2022-08-22T00:32:54.001Z,3.00
2022-08-22T00:37:53.961Z,3.00
2022-08-22T00:42:53.980Z,2.80
2022-08-22T00:47:53.841Z,3.20
2022-08-22T00:52:53.836Z,3.00
2022-08-22T00:57:53.717Z,3.70
2022-08-22T01:02:53.678Z,3.70
2022-08-22T01:07:53.622Z,3.70
2022-08-22T01:12:53.571Z,3.40
2022-08-22T01:17:53.506Z,3.70
2022-08-22T01:22:53.445Z,3.80
2022-08-22T01:27:53.394Z,3.80
2022-08-22T01:32:56.925Z,3.50
2022-08-22T01:37:53.378Z,3.50
2022-08-22T01:42:53.248Z,4.10
2022-08-22T01:47:54.262Z,3.60
2022-08-22T01:52:53.124Z,3.70
2022-08-22T01:57:53.192Z,4.50
2022-08-22T02:02:53.185Z,4.10
2022-08-22T02:07:52.991Z,4.20
2022-08-22T02:12:53.063Z,4.60
2022-08-22T02:17:53.071Z,4.60
2022-08-22T02:22:52.844Z,4.80
2022-08-22T02:27:52.782Z,4.80
2022-08-22T02:32:52.706Z,4.50
2022-08-22T02:37:52.679Z,5.70
2022-08-22T02:42:52.581Z,4.90
2022-08-22T02:47:52.583Z,4.60
2022-08-22T02:52:52.470Z,4.80
2022-08-22T02:57:52.476Z,4.80
2022-08-22T03:02:52.476Z,4.80
2022-08-22T03:07:52.337Z,4.70
2022-08-22T03:12:56.962Z,4.90
2022-08-22T03:17:53.266Z,5.00
2022-08-22T03:22:52.141Z,4.90
2022-08-22T03:27:52.146Z,5.60
2022-08-22T03:32:54.065Z,5.50
2022-08-22T03:37:51.982Z,5.10
2022-08-22T03:42:51.936Z,4.90
2022-08-22T03:47:51.926Z,5.30
2022-08-22T03:52:51.860Z,5.10
2022-08-22T03:57:51.753Z,4.80
2022-08-22T04:02:51.720Z,6.40
2022-08-22T04:07:51.618Z,5.00
2022-08-22T04:12:51.633Z,5.70
2022-08-22T04:17:51.535Z,5.20
2022-08-22T04:22:51.468Z,6.00
2022-08-22T04:27:52.509Z,5.90
2022-08-22T04:32:51.373Z,5.90
2022-08-22T04:37:51.323Z,5.40
2022-08-22T04:42:51.244Z,5.80
2022-08-22T04:47:54.568Z,6.10
2022-08-22T04:52:51.129Z,6.40
2022-08-22T04:57:51.186Z,6.30
2022-08-22T05:02:51.143Z,5.60
2022-08-22T05:07:53.036Z,5.80
2022-08-22T05:12:50.906Z,5.80
2022-08-22T05:17:50.940Z,5.30
2022-08-22T05:22:50.818Z,6.30
2022-08-22T05:27:51.220Z,5.90
2022-08-22T05:32:51.704Z,5.60
2022-08-22T05:37:50.657Z,5.50
2022-08-22T05:42:50.606Z,5.10
2022-08-22T05:47:50.559Z,5.50
2022-08-22T05:52:50.505Z,5.30
2022-08-22T05:57:50.470Z,4.80
2022-08-22T06:02:53.790Z,4.70
2022-08-22T06:07:50.443Z,4.60
2022-08-22T06:12:50.366Z,4.50
2022-08-22T06:17:50.227Z,4.80
2022-08-22T06:22:50.253Z,4.30
2022-08-22T06:27:50.112Z,4.30
2022-08-22T06:32:58.938Z,4.50
2022-08-22T06:37:51.000Z,4.50
2022-08-22T06:42:49.954Z,5.40
2022-08-22T06:47:50.994Z,5.50
2022-08-22T06:52:49.841Z,5.30
2022-08-22T06:57:49.791Z,6.00
2022-08-22T07:02:49.738Z,5.60
2022-08-22T07:07:49.691Z,5.40
2022-08-22T07:12:49.649Z,5.60
2022-08-22T07:17:49.569Z,5.50
2022-08-22T07:22:49.544Z,5.10
2022-08-22T07:27:49.465Z,4.90
2022-08-22T07:32:49.511Z,4.50
2022-08-22T07:37:49.453Z,4.50
2022-08-22T07:42:49.308Z,4.40
2022-08-22T07:47:49.859Z,3.70
2022-08-22T07:52:49.299Z,4.00
2022-08-22T07:57:51.161Z,4.00
2022-08-22T08:02:49.087Z,3.10
2022-08-22T08:07:49.051Z,3.20
2022-08-22T08:12:57.965Z,3.20
2022-08-22T08:17:49.944Z,2.50
2022-08-22T08:22:48.905Z,2.80
2022-08-22T08:27:50.514Z,2.40
2022-08-22T08:32:48.783Z,2.90
2022-08-22T08:37:48.734Z,2.80
2022-08-22T08:42:48.694Z,2.90
2022-08-22T08:47:48.650Z,2.40
2022-08-22T08:52:52.560Z,2.60
2022-08-22T08:57:48.543Z,2.50
2022-08-22T09:02:48.504Z,2.50
2022-08-22T09:07:48.431Z,1.90
2022-08-22T09:13:11.462Z,2.00
2022-08-22T09:17:49.347Z,1.70
2022-08-22T09:22:50.596Z,2.20
2022-08-22T09:27:48.259Z,2.20
2022-08-22T09:32:48.289Z,1.90
2022-08-22T09:37:48.381Z,2.10
2022-08-22T09:42:48.148Z,2.30
2022-08-22T09:47:48.049Z,2.20
2022-08-22T09:52:48.024Z,1.70
2022-08-22T09:57:47.974Z,2.30
2022-08-22T10:02:50.370Z,2.40
2022-08-22T10:07:47.866Z,2.40
2022-08-22T10:12:48.819Z,2.10
2022-08-22T10:17:47.745Z,2.20
2022-08-22T10:22:47.730Z,2.30
2022-08-22T10:27:47.672Z,2.30
2022-08-22T10:32:47.629Z,2.30
2022-08-22T10:37:47.571Z,2.20
2022-08-22T10:42:47.542Z,2.70
2022-08-22T10:47:47.487Z,2.00
2022-08-22T10:52:47.450Z,2.00
2022-08-22T10:57:52.112Z,2.10
2022-08-22T11:02:48.351Z,2.10
2022-08-22T11:07:48.423Z,1.90
2022-08-22T11:12:47.269Z,1.50
2022-08-22T11:17:54.093Z,1.80
2022-08-22T11:22:48.170Z,1.90
2022-08-22T11:27:47.113Z,2.10
2022-08-22T11:32:47.060Z,2.10
2022-08-22T11:37:47.014Z,2.20
2022-08-22T11:42:47.459Z,2.00
2022-08-22T11:47:46.967Z,2.10
2022-08-22T11:52:51.797Z,2.10
2022-08-22T11:57:47.839Z,2.40
2022-08-22T13:13:31.343Z,2.40
2022-08-22T13:18:29.798Z,2.40
2022-08-22T13:23:25.592Z,2.50
2022-08-22T13:28:24.538Z,2.90
2022-08-22T13:33:24.468Z,2.40
2022-08-22T13:38:25.957Z,2.30
2022-08-22T13:43:24.371Z,3.00
2022-08-22T13:48:28.523Z,2.60
2022-08-22T13:53:24.243Z,2.20
2022-08-22T13:58:24.933Z,2.30
2022-08-22T14:03:24.176Z,2.40
2022-08-22T14:08:25.874Z,2.40
2022-08-22T14:13:24.229Z,2.60
2022-08-22T14:18:30.532Z,2.60
2022-08-22T14:23:27.184Z,2.20
2022-08-22T14:28:27.590Z,2.40
2022-08-22T14:33:23.969Z,2.60
2022-08-22T14:38:29.974Z,2.30
2022-08-22T14:43:24.846Z,2.30
2022-08-22T14:48:31.233Z,2.20
2022-08-22T14:53:25.166Z,2.80
2022-08-22T14:58:26.502Z,2.40
2022-08-22T15:03:23.609Z,2.70
2022-08-22T15:08:24.153Z,2.70
2022-08-22T15:13:25.094Z,2.30
2022-08-22T15:18:23.513Z,2.70
2022-08-22T15:23:23.449Z,2.40
2022-08-22T15:28:23.364Z,2.50
2022-08-22T15:33:23.306Z,2.30
2022-08-22T15:38:26.330Z,2.50
2022-08-22T15:43:23.192Z,2.30
2022-08-22T15:48:23.138Z,2.30
2022-08-22T15:53:23.181Z,2.60
2022-08-22T15:58:23.139Z,2.40
2022-08-22T16:03:23.007Z,2.30
2022-08-22T16:08:22.962Z,2.70
2022-08-22T16:13:22.955Z,2.40
2022-08-22T16:18:22.824Z,2.80
2022-08-22T16:23:22.780Z,2.40
2022-08-22T16:28:36.137Z,2.30
2022-08-22T16:33:23.800Z,2.90
2022-08-22T16:38:22.658Z,2.60
2022-08-22T16:43:22.527Z,2.80
2022-08-22T16:48:23.523Z,2.80
2022-08-22T16:53:22.517Z,2.40
2022-08-22T16:58:22.582Z,2.50
2022-08-22T17:03:22.330Z,2.30
2022-08-22T17:08:22.281Z,2.90
2022-08-22T17:13:22.397Z,2.50
2022-08-22T17:18:22.324Z,3.30
2022-08-22T17:23:22.140Z,2.50
2022-08-22T17:28:22.070Z,2.90
2022-08-22T17:33:24.776Z,2.60
2022-08-22T17:38:23.021Z,3.10
2022-08-22T17:43:22.032Z,2.80
2022-08-22T17:48:21.959Z,2.80
2022-08-22T17:53:21.932Z,3.00
2022-08-22T17:58:35.666Z,3.10
2022-08-22T18:03:22.712Z,2.40
2022-08-22T18:08:37.820Z,3.00
2022-08-22T18:13:22.606Z,2.90
2022-08-22T18:18:24.868Z,3.20
2022-08-22T18:23:35.594Z,3.70
2022-08-22T18:28:22.484Z,2.80
2022-08-22T18:33:21.375Z,3.30
2022-08-22T18:38:21.365Z,3.20
2022-08-22T18:43:21.397Z,3.40
2022-08-22T18:48:21.273Z,3.40
2022-08-22T18:53:21.179Z,3.30
2022-08-22T18:58:21.197Z,3.00
2022-08-22T19:03:22.139Z,3.10
2022-08-22T19:08:21.109Z,3.70
2022-08-22T19:13:21.097Z,3.10
2022-08-22T19:18:29.941Z,2.80
2022-08-22T19:23:20.960Z,2.70
2022-08-22T19:28:20.861Z,2.80
2022-08-22T19:33:34.420Z,3.80
2022-08-22T19:38:21.699Z,3.80
2022-08-22T19:43:20.773Z,4.40
2022-08-22T19:48:20.618Z,3.90
2022-08-22T19:53:20.557Z,3.50
2022-08-22T19:58:32.793Z,3.60
2022-08-22T20:03:21.652Z,3.50
2022-08-22T20:08:20.368Z,4.20
2022-08-22T20:13:20.412Z,4.10
2022-08-22T20:23:21.209Z,3.90
2022-08-22T20:28:20.150Z,4.20
2022-08-22T20:33:20.140Z,3.80
2022-08-22T20:38:20.268Z,3.80
2022-08-22T20:43:20.109Z,3.40
2022-08-22T20:48:20.001Z,3.30
2022-08-22T20:53:21.008Z,3.90
2022-08-22T20:58:19.928Z,3.80
2022-08-22T21:03:19.869Z,3.50
2022-08-22T21:08:19.822Z,3.70
2022-08-22T21:13:20.794Z,4.10
2022-08-22T21:18:20.723Z,4.10
2022-08-22T21:23:19.741Z,3.90
2022-08-22T21:28:19.668Z,3.50
2022-08-22T21:33:23.692Z,3.70
2022-08-22T21:38:19.413Z,3.30
2022-08-22T21:43:19.399Z,3.70
2022-08-22T21:48:19.294Z,3.70
2022-08-22T21:53:19.218Z,3.60
2022-08-22T21:58:35.035Z,4.00
2022-08-22T22:03:20.102Z,3.60
2022-08-22T22:08:19.056Z,4.50
2022-08-22T22:13:19.007Z,3.90
2022-08-22T22:18:19.063Z,3.80
2022-08-22T22:23:18.886Z,4.30
2022-08-22T22:28:18.833Z,3.90
2022-08-22T22:33:18.883Z,3.90
2022-08-22T22:38:23.379Z,4.70
2022-08-22T22:43:19.720Z,4.00
2022-08-22T22:48:24.428Z,3.90
2022-08-22T22:53:21.503Z,4.80
2022-08-22T22:58:19.705Z,4.20
2022-08-22T23:03:18.455Z,3.70
2022-08-22T23:08:18.464Z,3.50
2022-08-22T23:13:18.364Z,3.60
2022-08-22T23:18:18.459Z,3.90
2022-08-22T23:23:18.261Z,3.70
2022-08-22T23:28:18.175Z,3.30
2022-08-22T23:33:18.140Z,3.90
2022-08-22T23:38:18.088Z,3.60
2022-08-22T23:43:18.018Z,3.70
2022-08-22T23:48:17.957Z,4.00
2022-08-22T23:53:17.919Z,3.90
2022-08-22T23:58:17.838Z,4.00
